sensor_id;sensor_type;location;lat;lon;timestamp;P1;durP1;ratioP1;P2;durP2;ratioP2
26774;SDS011;14362;51.902;7.626;2022-07-23T00:03:15;5.47;;;4.00;;
26774;SDS011;14362;51.902;7.626;2022-07-23T00:07:16;5.60;;;4.72;;
26774;SDS011;14362;51.902;7.626;2022-07-23T00:11:18;11.65;;;5.10;;
26774;SDS011;14362;51.902;7.626;2022-07-23T00:15:23;6.22;;;4.70;;
26774;SDS011;14362;51.902;7.626;2022-07-23T00:19:24;6.25;;;5.40;;
26774;SDS011;14362;51.902;7.626;2022-07-23T00:23:26;6.57;;;5.80;;
26774;SDS011;14362;51.902;7.626;2022-07-23T00:27:28;7.40;;;5.93;;
26774;SDS011;14362;51.902;7.626;2022-07-23T00:31:31;10.32;;;7.13;;
26774;SDS011;14362;51.902;7.626;2022-07-23T00:35:33;8.80;;;6.68;;
26774;SDS011;14362;51.902;7.626;2022-07-23T00:39:36;8.38;;;7.00;;
26774;SDS011;14362;51.902;7.626;2022-07-23T00:43:37;8.02;;;6.50;;
26774;SDS011;14362;51.902;7.626;2022-07-23T00:47:40;7.40;;;6.53;;
26774;SDS011;14362;51.902;7.626;2022-07-23T00:51:41;11.65;;;7.03;;
26774;SDS011;14362;51.902;7.626;2022-07-23T00:55:43;10.10;;;7.90;;
26774;SDS011;14362;51.902;7.626;2022-07-23T00:59:44;13.50;;;7.60;;
26774;SDS011;14362;51.902;7.626;2022-07-23T01:03:47;10.40;;;7.50;;
26774;SDS011;14362;51.902;7.626;2022-07-23T01:07:49;13.00;;;7.78;;
26774;SDS011;14362;51.902;7.626;2022-07-23T01:11:51;11.63;;;8.40;;
26774;SDS011;14362;51.902;7.626;2022-07-23T01:15:55;11.75;;;7.93;;
26774;SDS011;14362;51.902;7.626;2022-07-23T01:19:58;10.15;;;8.35;;
26774;SDS011;14362;51.902;7.626;2022-07-23T01:24:00;12.32;;;8.05;;
26774;SDS011;14362;51.902;7.626;2022-07-23T01:28:02;10.68;;;8.15;;
26774;SDS011;14362;51.902;7.626;2022-07-23T01:32:04;10.25;;;8.60;;
26774;SDS011;14362;51.902;7.626;2022-07-23T01:36:06;11.10;;;8.63;;
26774;SDS011;14362;51.902;7.626;2022-07-23T01:40:09;10.45;;;8.88;;
26774;SDS011;14362;51.902;7.626;2022-07-23T01:44:11;10.55;;;9.23;;
26774;SDS011;14362;51.902;7.626;2022-07-23T01:48:12;12.90;;;9.50;;
26774;SDS011;14362;51.902;7.626;2022-07-23T01:52:14;13.07;;;9.32;;
26774;SDS011;14362;51.902;7.626;2022-07-23T01:56:17;13.20;;;9.50;;
26774;SDS011;14362;51.902;7.626;2022-07-23T02:00:20;14.93;;;10.98;;
26774;SDS011;14362;51.902;7.626;2022-07-23T02:04:22;12.85;;;9.90;;
26774;SDS011;14362;51.902;7.626;2022-07-23T02:08:25;11.77;;;10.40;;
26774;SDS011;14362;51.902;7.626;2022-07-23T02:12:27;11.82;;;10.50;;
26774;SDS011;14362;51.902;7.626;2022-07-23T02:16:29;11.43;;;9.95;;
26774;SDS011;14362;51.902;7.626;2022-07-23T02:20:31;16.00;;;10.77;;
26774;SDS011;14362;51.902;7.626;2022-07-23T02:24:32;14.57;;;11.40;;
26774;SDS011;14362;51.902;7.626;2022-07-23T02:28:35;13.90;;;10.40;;
26774;SDS011;14362;51.902;7.626;2022-07-23T02:32:37;15.10;;;11.40;;
26774;SDS011;14362;51.902;7.626;2022-07-23T02:36:39;13.93;;;11.23;;
26774;SDS011;14362;51.902;7.626;2022-07-23T02:40:41;15.82;;;11.75;;
26774;SDS011;14362;51.902;7.626;2022-07-23T02:44:44;14.35;;;11.70;;
26774;SDS011;14362;51.902;7.626;2022-07-23T02:48:45;12.02;;;10.52;;
26774;SDS011;14362;51.902;7.626;2022-07-23T02:52:46;11.88;;;10.68;;
26774;SDS011;14362;51.902;7.626;2022-07-23T02:56:48;11.65;;;10.50;;
26774;SDS011;14362;51.902;7.626;2022-07-23T03:00:52;12.73;;;10.95;;
26774;SDS011;14362;51.902;7.626;2022-07-23T03:04:53;14.45;;;11.27;;
26774;SDS011;14362;51.902;7.626;2022-07-23T03:08:55;13.23;;;10.88;;
26774;SDS011;14362;51.902;7.626;2022-07-23T03:12:56;12.88;;;11.27;;
26774;SDS011;14362;51.902;7.626;2022-07-23T03:16:59;12.20;;;10.50;;
26774;SDS011;14362;51.902;7.626;2022-07-23T03:21:00;13.10;;;11.35;;
26774;SDS011;14362;51.902;7.626;2022-07-23T03:25:02;11.80;;;10.57;;
26774;SDS011;14362;51.902;7.626;2022-07-23T03:29:04;12.70;;;10.90;;
26774;SDS011;14362;51.902;7.626;2022-07-23T03:33:07;14.75;;;11.02;;
26774;SDS011;14362;51.902;7.626;2022-07-23T03:37:08;13.95;;;10.70;;
26774;SDS011;14362;51.902;7.626;2022-07-23T03:41:10;13.02;;;11.10;;
26774;SDS011;14362;51.902;7.626;2022-07-23T03:45:11;11.60;;;10.40;;
26774;SDS011;14362;51.902;7.626;2022-07-23T03:49:14;13.23;;;10.60;;
26774;SDS011;14362;51.902;7.626;2022-07-23T03:53:15;12.40;;;11.13;;
26774;SDS011;14362;51.902;7.626;2022-07-23T03:57:17;11.73;;;10.27;;
26774;SDS011;14362;51.902;7.626;2022-07-23T04:01:18;15.18;;;11.30;;
26774;SDS011;14362;51.902;7.626;2022-07-23T04:05:21;11.65;;;10.43;;
26774;SDS011;14362;51.902;7.626;2022-07-23T04:09:23;15.43;;;11.23;;
26774;SDS011;14362;51.902;7.626;2022-07-23T04:13:24;12.07;;;10.80;;
26774;SDS011;14362;51.902;7.626;2022-07-23T04:17:26;14.10;;;11.35;;
26774;SDS011;14362;51.902;7.626;2022-07-23T04:21:29;12.80;;;10.23;;
26774;SDS011;14362;51.902;7.626;2022-07-23T04:25:31;12.88;;;10.90;;
26774;SDS011;14362;51.902;7.626;2022-07-23T04:29:32;12.63;;;11.43;;
26774;SDS011;14362;51.902;7.626;2022-07-23T04:33:34;14.45;;;11.45;;
26774;SDS011;14362;51.902;7.626;2022-07-23T04:37:36;12.18;;;10.73;;
26774;SDS011;14362;51.902;7.626;2022-07-23T04:41:38;13.63;;;11.13;;
26774;SDS011;14362;51.902;7.626;2022-07-23T04:45:39;12.05;;;10.13;;
26774;SDS011;14362;51.902;7.626;2022-07-23T04:49:41;11.18;;;10.07;;
26774;SDS011;14362;51.902;7.626;2022-07-23T04:53:44;12.05;;;10.85;;
26774;SDS011;14362;51.902;7.626;2022-07-23T04:57:45;16.10;;;11.05;;
26774;SDS011;14362;51.902;7.626;2022-07-23T05:01:47;13.45;;;11.77;;
26774;SDS011;14362;51.902;7.626;2022-07-23T05:05:48;14.23;;;11.43;;
26774;SDS011;14362;51.902;7.626;2022-07-23T05:09:51;12.73;;;10.82;;
26774;SDS011;14362;51.902;7.626;2022-07-23T05:13:52;12.45;;;11.15;;
26774;SDS011;14362;51.902;7.626;2022-07-23T05:17:54;13.68;;;11.13;;
26774;SDS011;14362;51.902;7.626;2022-07-23T05:21:55;12.27;;;11.02;;
26774;SDS011;14362;51.902;7.626;2022-07-23T05:25:58;12.75;;;10.88;;
26774;SDS011;14362;51.902;7.626;2022-07-23T05:29:59;12.55;;;10.95;;
26774;SDS011;14362;51.902;7.626;2022-07-23T05:34:01;15.95;;;12.80;;
26774;SDS011;14362;51.902;7.626;2022-07-23T05:38:02;15.35;;;12.57;;
26774;SDS011;14362;51.902;7.626;2022-07-23T05:42:05;12.02;;;10.70;;
26774;SDS011;14362;51.902;7.626;2022-07-23T05:46:07;12.90;;;9.85;;
26774;SDS011;14362;51.902;7.626;2022-07-23T05:50:09;14.85;;;9.88;;
26774;SDS011;14362;51.902;7.626;2022-07-23T05:54:11;10.80;;;9.60;;
26774;SDS011;14362;51.902;7.626;2022-07-23T05:58:14;11.77;;;7.57;;
26774;SDS011;14362;51.902;7.626;2022-07-23T06:02:15;9.93;;;8.00;;
26774;SDS011;14362;51.902;7.626;2022-07-23T06:06:17;9.40;;;7.82;;
26774;SDS011;14362;51.902;7.626;2022-07-23T06:10:18;8.20;;;7.30;;
26774;SDS011;14362;51.902;7.626;2022-07-23T06:14:21;7.80;;;6.80;;
26774;SDS011;14362;51.902;7.626;2022-07-23T06:18:23;6.78;;;6.18;;
26774;SDS011;14362;51.902;7.626;2022-07-23T06:22:24;8.38;;;6.90;;
26774;SDS011;14362;51.902;7.626;2022-07-23T06:26:26;6.82;;;6.13;;
26774;SDS011;14362;51.902;7.626;2022-07-23T06:30:29;8.30;;;6.78;;
26774;SDS011;14362;51.902;7.626;2022-07-23T06:34:30;8.68;;;6.93;;
26774;SDS011;14362;51.902;7.626;2022-07-23T06:38:31;12.43;;;7.45;;
26774;SDS011;14362;51.902;7.626;2022-07-23T06:42:33;10.70;;;7.72;;
26774;SDS011;14362;51.902;7.626;2022-07-23T06:46:38;9.07;;;5.85;;
26774;SDS011;14362;51.902;7.626;2022-07-23T06:50:39;6.95;;;6.20;;
26774;SDS011;14362;51.902;7.626;2022-07-23T06:54:40;8.57;;;6.53;;
26774;SDS011;14362;51.902;7.626;2022-07-23T06:58:42;10.63;;;6.85;;
26774;SDS011;14362;51.902;7.626;2022-07-23T07:02:45;10.27;;;6.63;;
26774;SDS011;14362;51.902;7.626;2022-07-23T07:06:46;8.57;;;6.40;;
26774;SDS011;14362;51.902;7.626;2022-07-23T07:10:48;12.82;;;6.25;;
26774;SDS011;14362;51.902;7.626;2022-07-23T07:14:49;9.57;;;7.32;;
26774;SDS011;14362;51.902;7.626;2022-07-23T07:18:52;8.05;;;6.43;;
26774;SDS011;14362;51.902;7.626;2022-07-23T07:22:53;10.43;;;5.53;;
26774;SDS011;14362;51.902;7.626;2022-07-23T07:26:55;9.13;;;5.10;;
26774;SDS011;14362;51.902;7.626;2022-07-23T07:30:56;7.60;;;4.90;;
26774;SDS011;14362;51.902;7.626;2022-07-23T07:34:59;8.20;;;5.55;;
26774;SDS011;14362;51.902;7.626;2022-07-23T07:39:00;5.13;;;3.92;;
26774;SDS011;14362;51.902;7.626;2022-07-23T07:43:02;5.63;;;3.47;;
26774;SDS011;14362;51.902;7.626;2022-07-23T07:47:04;5.22;;;4.10;;
26774;SDS011;14362;51.902;7.626;2022-07-23T07:51:07;8.18;;;5.25;;
26774;SDS011;14362;51.902;7.626;2022-07-23T07:55:09;8.40;;;4.10;;
26774;SDS011;14362;51.902;7.626;2022-07-23T07:59:11;6.70;;;4.22;;
26774;SDS011;14362;51.902;7.626;2022-07-23T08:03:14;4.65;;;3.85;;
26774;SDS011;14362;51.902;7.626;2022-07-23T08:07:17;6.32;;;4.55;;
26774;SDS011;14362;51.902;7.626;2022-07-23T08:11:19;4.93;;;3.72;;
26774;SDS011;14362;51.902;7.626;2022-07-23T08:15:21;5.65;;;3.85;;
26774;SDS011;14362;51.902;7.626;2022-07-23T08:19:23;6.22;;;3.70;;
26774;SDS011;14362;51.902;7.626;2022-07-23T08:23:25;8.63;;;4.45;;
26774;SDS011;14362;51.902;7.626;2022-07-23T08:27:27;4.88;;;3.88;;
26774;SDS011;14362;51.902;7.626;2022-07-23T08:31:28;5.65;;;4.18;;
26774;SDS011;14362;51.902;7.626;2022-07-23T08:35:31;4.88;;;4.05;;
26774;SDS011;14362;51.902;7.626;2022-07-23T08:39:34;4.75;;;4.18;;
26774;SDS011;14362;51.902;7.626;2022-07-23T08:43:36;6.38;;;4.38;;
26774;SDS011;14362;51.902;7.626;2022-07-23T08:47:37;4.78;;;3.70;;
26774;SDS011;14362;51.902;7.626;2022-07-23T08:51:40;5.57;;;3.53;;
26774;SDS011;14362;51.902;7.626;2022-07-23T08:55:44;4.80;;;3.33;;
26774;SDS011;14362;51.902;7.626;2022-07-23T08:59:46;3.65;;;3.22;;
26774;SDS011;14362;51.902;7.626;2022-07-23T09:03:47;4.03;;;2.97;;
26774;SDS011;14362;51.902;7.626;2022-07-23T09:12:16;3.38;;;2.42;;
26774;SDS011;14362;51.902;7.626;2022-07-23T09:16:19;4.38;;;3.17;;
26774;SDS011;14362;51.902;7.626;2022-07-23T09:20:24;4.15;;;3.17;;
26774;SDS011;14362;51.902;7.626;2022-07-23T09:24:25;3.00;;;2.40;;
26774;SDS011;14362;51.902;7.626;2022-07-23T09:28:28;4.80;;;2.85;;
26774;SDS011;14362;51.902;7.626;2022-07-23T09:32:30;3.70;;;2.45;;
26774;SDS011;14362;51.902;7.626;2022-07-23T09:36:31;6.00;;;3.65;;
26774;SDS011;14362;51.902;7.626;2022-07-23T09:40:33;3.75;;;2.40;;
26774;SDS011;14362;51.902;7.626;2022-07-23T09:44:36;3.83;;;2.88;;
26774;SDS011;14362;51.902;7.626;2022-07-23T09:48:42;5.35;;;2.65;;
26774;SDS011;14362;51.902;7.626;2022-07-23T09:52:44;3.45;;;2.40;;
26774;SDS011;14362;51.902;7.626;2022-07-23T10:00:51;3.42;;;2.20;;
26774;SDS011;14362;51.902;7.626;2022-07-23T10:04:53;3.93;;;2.70;;
26774;SDS011;14362;51.902;7.626;2022-07-23T10:08:55;2.72;;;2.40;;
26774;SDS011;14362;51.902;7.626;2022-07-23T10:13:00;3.63;;;1.90;;
26774;SDS011;14362;51.902;7.626;2022-07-23T10:17:21;2.80;;;1.77;;
26774;SDS011;14362;51.902;7.626;2022-07-23T10:21:24;5.82;;;2.45;;
26774;SDS011;14362;51.902;7.626;2022-07-23T10:25:30;3.80;;;1.60;;
26774;SDS011;14362;51.902;7.626;2022-07-23T10:29:41;3.42;;;1.73;;
26774;SDS011;14362;51.902;7.626;2022-07-23T10:33:53;13.27;;;2.10;;
26774;SDS011;14362;51.902;7.626;2022-07-23T10:38:00;4.28;;;1.67;;
26774;SDS011;14362;51.902;7.626;2022-07-23T10:42:10;2.53;;;1.40;;
26774;SDS011;14362;51.902;7.626;2022-07-23T10:46:23;3.58;;;1.40;;
26774;SDS011;14362;51.902;7.626;2022-07-23T10:50:36;3.47;;;1.60;;
26774;SDS011;14362;51.902;7.626;2022-07-23T10:54:38;2.63;;;1.60;;
26774;SDS011;14362;51.902;7.626;2022-07-23T10:58:47;3.25;;;2.00;;
26774;SDS011;14362;51.902;7.626;2022-07-23T11:02:50;2.83;;;1.70;;
26774;SDS011;14362;51.902;7.626;2022-07-23T11:07:10;2.47;;;1.50;;
26774;SDS011;14362;51.902;7.626;2022-07-23T11:11:12;1.70;;;1.10;;
26774;SDS011;14362;51.902;7.626;2022-07-23T11:15:13;3.20;;;1.48;;
26774;SDS011;14362;51.902;7.626;2022-07-23T11:19:15;1.52;;;1.25;;
26774;SDS011;14362;51.902;7.626;2022-07-23T11:23:18;1.50;;;1.13;;
26774;SDS011;14362;51.902;7.626;2022-07-23T11:27:21;2.53;;;1.15;;
26774;SDS011;14362;51.902;7.626;2022-07-23T11:31:38;3.53;;;1.50;;
26774;SDS011;14362;51.902;7.626;2022-07-23T11:36:02;4.57;;;1.70;;
26774;SDS011;14362;51.902;7.626;2022-07-23T11:40:07;2.17;;;1.20;;
26774;SDS011;14362;51.902;7.626;2022-07-23T11:44:23;2.38;;;1.30;;
26774;SDS011;14362;51.902;7.626;2022-07-23T11:48:25;3.90;;;1.33;;
26774;SDS011;14362;51.902;7.626;2022-07-23T11:52:28;2.25;;;1.45;;
26774;SDS011;14362;51.902;7.626;2022-07-23T11:56:32;1.75;;;1.10;;
26774;SDS011;14362;51.902;7.626;2022-07-23T12:00:33;5.40;;;1.33;;
26774;SDS011;14362;51.902;7.626;2022-07-23T12:04:38;3.53;;;1.20;;
26774;SDS011;14362;51.902;7.626;2022-07-23T12:08:40;2.00;;;1.30;;
26774;SDS011;14362;51.902;7.626;2022-07-23T12:12:44;3.22;;;1.40;;
26774;SDS011;14362;51.902;7.626;2022-07-23T12:21:08;3.15;;;1.38;;
26774;SDS011;14362;51.902;7.626;2022-07-23T12:25:10;2.00;;;1.30;;
26774;SDS011;14362;51.902;7.626;2022-07-23T12:29:14;1.58;;;1.20;;
26774;SDS011;14362;51.902;7.626;2022-07-23T12:33:21;1.40;;;1.30;;
26774;SDS011;14362;51.902;7.626;2022-07-23T12:37:25;3.38;;;2.10;;
26774;SDS011;14362;51.902;7.626;2022-07-23T12:41:28;2.47;;;1.15;;
26774;SDS011;14362;51.902;7.626;2022-07-23T12:49:56;2.97;;;1.30;;
26774;SDS011;14362;51.902;7.626;2022-07-23T12:53:58;2.60;;;1.20;;
26774;SDS011;14362;51.902;7.626;2022-07-23T12:58:06;4.60;;;1.60;;
26774;SDS011;14362;51.902;7.626;2022-07-23T13:02:17;2.47;;;1.50;;
26774;SDS011;14362;51.902;7.626;2022-07-23T13:06:19;2.22;;;1.38;;
26774;SDS011;14362;51.902;7.626;2022-07-23T13:10:20;3.95;;;1.38;;
26774;SDS011;14362;51.902;7.626;2022-07-23T13:14:23;3.35;;;1.60;;
26774;SDS011;14362;51.902;7.626;2022-07-23T13:18:28;5.47;;;1.38;;
26774;SDS011;14362;51.902;7.626;2022-07-23T13:22:29;3.65;;;1.20;;
26774;SDS011;14362;51.902;7.626;2022-07-23T13:26:31;7.45;;;1.60;;
26774;SDS011;14362;51.902;7.626;2022-07-23T13:30:33;2.95;;;1.30;;
26774;SDS011;14362;51.902;7.626;2022-07-23T13:34:36;2.75;;;1.63;;
26774;SDS011;14362;51.902;7.626;2022-07-23T13:38:37;2.15;;;1.40;;
26774;SDS011;14362;51.902;7.626;2022-07-23T13:42:39;1.52;;;1.25;;
26774;SDS011;14362;51.902;7.626;2022-07-23T13:46:40;2.95;;;1.45;;
26774;SDS011;14362;51.902;7.626;2022-07-23T13:50:43;4.30;;;1.52;;
26774;SDS011;14362;51.902;7.626;2022-07-23T13:54:47;1.77;;;1.42;;
26774;SDS011;14362;51.902;7.626;2022-07-23T13:58:48;1.30;;;1.20;;
26774;SDS011;14362;51.902;7.626;2022-07-23T14:02:49;2.65;;;1.40;;
26774;SDS011;14362;51.902;7.626;2022-07-23T14:06:52;2.10;;;1.58;;
26774;SDS011;14362;51.902;7.626;2022-07-23T14:10:54;8.35;;;1.60;;
26774;SDS011;14362;51.902;7.626;2022-07-23T14:14:56;3.45;;;1.67;;
26774;SDS011;14362;51.902;7.626;2022-07-23T14:18:57;3.65;;;1.60;;
26774;SDS011;14362;51.902;7.626;2022-07-23T14:23:00;1.83;;;1.42;;
26774;SDS011;14362;51.902;7.626;2022-07-23T14:27:02;1.98;;;1.77;;
26774;SDS011;14362;51.902;7.626;2022-07-23T14:31:05;2.33;;;1.33;;
26774;SDS011;14362;51.902;7.626;2022-07-23T14:35:07;3.78;;;1.92;;
26774;SDS011;14362;51.902;7.626;2022-07-23T14:39:10;2.60;;;1.70;;
26774;SDS011;14362;51.902;7.626;2022-07-23T14:43:12;2.40;;;1.70;;
26774;SDS011;14362;51.902;7.626;2022-07-23T14:47:14;2.10;;;1.50;;
26774;SDS011;14362;51.902;7.626;2022-07-23T14:51:15;2.95;;;1.48;;
26774;SDS011;14362;51.902;7.626;2022-07-23T14:55:18;1.50;;;1.40;;
26774;SDS011;14362;51.902;7.626;2022-07-23T14:59:20;4.20;;;1.77;;
26774;SDS011;14362;51.902;7.626;2022-07-23T15:03:21;4.05;;;1.90;;
26774;SDS011;14362;51.902;7.626;2022-07-23T15:07:24;1.98;;;1.77;;
26774;SDS011;14362;51.902;7.626;2022-07-23T15:11:27;2.97;;;1.60;;
26774;SDS011;14362;51.902;7.626;2022-07-23T15:15:31;2.08;;;1.80;;
26774;SDS011;14362;51.902;7.626;2022-07-23T15:19:32;1.75;;;1.55;;
26774;SDS011;14362;51.902;7.626;2022-07-23T15:23:34;5.25;;;1.63;;
26774;SDS011;14362;51.902;7.626;2022-07-23T15:27:37;5.07;;;2.13;;
26774;SDS011;14362;51.902;7.626;2022-07-23T15:31:39;2.95;;;2.10;;
26774;SDS011;14362;51.902;7.626;2022-07-23T15:35:40;2.85;;;1.92;;
26774;SDS011;14362;51.902;7.626;2022-07-23T15:39:42;4.88;;;4.43;;
26774;SDS011;14362;51.902;7.626;2022-07-23T15:43:45;3.80;;;3.10;;
26774;SDS011;14362;51.902;7.626;2022-07-23T15:47:46;1.95;;;1.60;;
26774;SDS011;14362;51.902;7.626;2022-07-23T15:51:48;3.42;;;2.83;;
26774;SDS011;14362;51.902;7.626;2022-07-23T15:55:50;1.90;;;1.63;;
26774;SDS011;14362;51.902;7.626;2022-07-23T15:59:53;2.08;;;1.77;;
26774;SDS011;14362;51.902;7.626;2022-07-23T16:03:56;4.00;;;2.10;;
26774;SDS011;14362;51.902;7.626;2022-07-23T16:07:59;3.78;;;1.90;;
26774;SDS011;14362;51.902;7.626;2022-07-23T16:12:00;3.85;;;2.10;;
26774;SDS011;14362;51.902;7.626;2022-07-23T16:16:04;2.70;;;1.80;;
26774;SDS011;14362;51.902;7.626;2022-07-23T16:24:08;3.35;;;1.90;;
26774;SDS011;14362;51.902;7.626;2022-07-23T16:28:10;1.80;;;1.70;;
26774;SDS011;14362;51.902;7.626;2022-07-23T16:32:13;2.70;;;1.73;;
26774;SDS011;14362;51.902;7.626;2022-07-23T16:36:15;2.50;;;2.10;;
26774;SDS011;14362;51.902;7.626;2022-07-23T16:40:17;4.95;;;2.25;;
26774;SDS011;14362;51.902;7.626;2022-07-23T16:44:18;3.47;;;1.80;;
26774;SDS011;14362;51.902;7.626;2022-07-23T16:48:21;5.78;;;3.58;;
26774;SDS011;14362;51.902;7.626;2022-07-23T16:52:23;3.30;;;2.40;;
26774;SDS011;14362;51.902;7.626;2022-07-23T16:56:24;5.10;;;3.80;;
26774;SDS011;14362;51.902;7.626;2022-07-23T17:00:26;2.45;;;1.95;;
26774;SDS011;14362;51.902;7.626;2022-07-23T17:04:29;2.33;;;1.92;;
26774;SDS011;14362;51.902;7.626;2022-07-23T17:08:30;2.15;;;1.95;;
26774;SDS011;14362;51.902;7.626;2022-07-23T17:12:32;2.42;;;2.00;;
26774;SDS011;14362;51.902;7.626;2022-07-23T17:16:33;2.17;;;1.90;;
26774;SDS011;14362;51.902;7.626;2022-07-23T17:20:36;3.92;;;2.08;;
26774;SDS011;14362;51.902;7.626;2022-07-23T17:24:38;4.35;;;1.92;;
26774;SDS011;14362;51.902;7.626;2022-07-23T17:28:39;2.63;;;2.42;;
26774;SDS011;14362;51.902;7.626;2022-07-23T17:32:41;2.22;;;1.70;;
26774;SDS011;14362;51.902;7.626;2022-07-23T17:36:44;2.03;;;1.85;;
26774;SDS011;14362;51.902;7.626;2022-07-23T17:40:46;3.97;;;3.60;;
26774;SDS011;14362;51.902;7.626;2022-07-23T17:44:47;3.30;;;2.00;;
26774;SDS011;14362;51.902;7.626;2022-07-23T17:48:49;6.00;;;2.40;;
26774;SDS011;14362;51.902;7.626;2022-07-23T17:52:52;2.67;;;2.30;;
26774;SDS011;14362;51.902;7.626;2022-07-23T17:56:55;8.30;;;6.70;;
26774;SDS011;14362;51.902;7.626;2022-07-23T18:00:57;3.45;;;2.55;;
26774;SDS011;14362;51.902;7.626;2022-07-23T18:04:58;3.20;;;1.70;;
26774;SDS011;14362;51.902;7.626;2022-07-23T18:09:01;2.25;;;1.80;;
26774;SDS011;14362;51.902;7.626;2022-07-23T18:13:03;4.53;;;4.13;;
26774;SDS011;14362;51.902;7.626;2022-07-23T18:21:08;1.85;;;1.67;;
26774;SDS011;14362;51.902;7.626;2022-07-23T18:25:11;1.98;;;1.77;;
26774;SDS011;14362;51.902;7.626;2022-07-23T18:29:13;4.32;;;2.00;;
26774;SDS011;14362;51.902;7.626;2022-07-23T18:33:14;2.53;;;2.00;;
26774;SDS011;14362;51.902;7.626;2022-07-23T18:37:16;3.25;;;1.83;;
26774;SDS011;14362;51.902;7.626;2022-07-23T18:41:20;1.90;;;1.60;;
26774;SDS011;14362;51.902;7.626;2022-07-23T18:45:22;2.40;;;1.90;;
26774;SDS011;14362;51.902;7.626;2022-07-23T18:49:23;2.53;;;1.80;;
26774;SDS011;14362;51.902;7.626;2022-07-23T18:53:25;3.13;;;1.70;;
26774;SDS011;14362;51.902;7.626;2022-07-23T18:57:28;3.92;;;1.98;;
26774;SDS011;14362;51.902;7.626;2022-07-23T19:01:29;3.67;;;1.92;;
26774;SDS011;14362;51.902;7.626;2022-07-23T19:05:31;2.13;;;1.65;;
26774;SDS011;14362;51.902;7.626;2022-07-23T19:09:32;3.83;;;1.90;;
26774;SDS011;14362;51.902;7.626;2022-07-23T19:13:36;1.60;;;1.45;;
26774;SDS011;14362;51.902;7.626;2022-07-23T19:17:37;3.90;;;1.52;;
26774;SDS011;14362;51.902;7.626;2022-07-23T19:21:39;2.15;;;1.80;;
26774;SDS011;14362;51.902;7.626;2022-07-23T19:25:40;2.53;;;1.88;;
26774;SDS011;14362;51.902;7.626;2022-07-23T19:29:43;2.08;;;1.88;;
26774;SDS011;14362;51.902;7.626;2022-07-23T19:33:45;3.90;;;1.95;;
26774;SDS011;14362;51.902;7.626;2022-07-23T19:37:46;2.47;;;1.80;;
26774;SDS011;14362;51.902;7.626;2022-07-23T19:41:48;5.47;;;2.22;;
26774;SDS011;14362;51.902;7.626;2022-07-23T19:45:51;3.40;;;2.08;;
26774;SDS011;14362;51.902;7.626;2022-07-23T19:49:52;5.35;;;1.85;;
26774;SDS011;14362;51.902;7.626;2022-07-23T19:53:54;2.88;;;2.13;;
26774;SDS011;14362;51.902;7.626;2022-07-23T19:57:55;2.33;;;2.03;;
26774;SDS011;14362;51.902;7.626;2022-07-23T20:01:58;2.40;;;2.00;;
26774;SDS011;14362;51.902;7.626;2022-07-23T20:05:59;2.78;;;2.00;;
26774;SDS011;14362;51.902;7.626;2022-07-23T20:10:01;3.22;;;2.00;;
26774;SDS011;14362;51.902;7.626;2022-07-23T20:14:04;2.72;;;2.20;;
26774;SDS011;14362;51.902;7.626;2022-07-23T20:18:09;2.28;;;2.00;;
26774;SDS011;14362;51.902;7.626;2022-07-23T20:22:10;5.82;;;2.53;;
26774;SDS011;14362;51.902;7.626;2022-07-23T20:26:11;3.78;;;2.28;;
26774;SDS011;14362;51.902;7.626;2022-07-23T20:30:13;6.68;;;2.88;;
26774;SDS011;14362;51.902;7.626;2022-07-23T20:34:16;3.92;;;2.50;;
26774;SDS011;14362;51.902;7.626;2022-07-23T20:38:18;4.13;;;2.33;;
26774;SDS011;14362;51.902;7.626;2022-07-23T20:42:19;3.72;;;2.65;;
26774;SDS011;14362;51.902;7.626;2022-07-23T20:46:21;2.58;;;2.28;;
26774;SDS011;14362;51.902;7.626;2022-07-23T20:50:24;3.67;;;2.72;;
26774;SDS011;14362;51.902;7.626;2022-07-23T20:54:26;3.08;;;2.55;;
26774;SDS011;14362;51.902;7.626;2022-07-23T20:58:28;4.05;;;3.05;;
26774;SDS011;14362;51.902;7.626;2022-07-23T21:02:29;6.30;;;3.17;;
26774;SDS011;14362;51.902;7.626;2022-07-23T21:06:32;4.40;;;3.30;;
26774;SDS011;14362;51.902;7.626;2022-07-23T21:10:37;3.22;;;2.92;;
26774;SDS011;14362;51.902;7.626;2022-07-23T21:14:39;3.58;;;3.28;;
26774;SDS011;14362;51.902;7.626;2022-07-23T21:18:40;4.95;;;3.28;;
26774;SDS011;14362;51.902;7.626;2022-07-23T21:22:43;6.97;;;3.40;;
26774;SDS011;14362;51.902;7.626;2022-07-23T21:26:45;5.72;;;4.72;;
26774;SDS011;14362;51.902;7.626;2022-07-23T21:30:47;7.25;;;5.65;;
26774;SDS011;14362;51.902;7.626;2022-07-23T21:34:48;7.65;;;5.57;;
26774;SDS011;14362;51.902;7.626;2022-07-23T21:38:51;5.82;;;4.72;;
26774;SDS011;14362;51.902;7.626;2022-07-23T21:42:52;7.97;;;5.40;;
26774;SDS011;14362;51.902;7.626;2022-07-23T21:46:54;5.63;;;4.30;;
26774;SDS011;14362;51.902;7.626;2022-07-23T21:50:55;6.30;;;4.72;;
26774;SDS011;14362;51.902;7.626;2022-07-23T21:54:58;5.57;;;4.63;;
26774;SDS011;14362;51.902;7.626;2022-07-23T21:59:00;6.22;;;4.05;;
26774;SDS011;14362;51.902;7.626;2022-07-23T22:03:02;4.22;;;3.88;;
26774;SDS011;14362;51.902;7.626;2022-07-23T22:07:04;4.95;;;4.25;;
26774;SDS011;14362;51.902;7.626;2022-07-23T22:11:07;4.20;;;3.50;;
26774;SDS011;14362;51.902;7.626;2022-07-23T22:15:09;3.60;;;3.30;;
26774;SDS011;14362;51.902;7.626;2022-07-23T22:19:12;4.63;;;3.63;;
26774;SDS011;14362;51.902;7.626;2022-07-23T22:23:14;6.75;;;4.03;;
26774;SDS011;14362;51.902;7.626;2022-07-23T22:27:17;5.47;;;3.42;;
26774;SDS011;14362;51.902;7.626;2022-07-23T22:31:18;4.68;;;3.50;;
26774;SDS011;14362;51.902;7.626;2022-07-23T22:35:20;3.72;;;3.30;;
26774;SDS011;14362;51.902;7.626;2022-07-23T22:39:21;4.88;;;3.38;;
26774;SDS011;14362;51.902;7.626;2022-07-23T22:43:24;4.97;;;3.28;;
26774;SDS011;14362;51.902;7.626;2022-07-23T22:47:25;3.90;;;3.03;;
26774;SDS011;14362;51.902;7.626;2022-07-23T22:51:27;2.83;;;2.63;;
26774;SDS011;14362;51.902;7.626;2022-07-23T22:55:28;3.70;;;2.40;;
26774;SDS011;14362;51.902;7.626;2022-07-23T22:59:31;4.18;;;2.83;;
26774;SDS011;14362;51.902;7.626;2022-07-23T23:03:33;3.30;;;2.97;;
26774;SDS011;14362;51.902;7.626;2022-07-23T23:07:34;3.15;;;2.72;;
26774;SDS011;14362;51.902;7.626;2022-07-23T23:11:36;3.58;;;2.75;;
26774;SDS011;14362;51.902;7.626;2022-07-23T23:15:38;3.22;;;2.92;;
26774;SDS011;14362;51.902;7.626;2022-07-23T23:19:40;4.60;;;2.65;;
26774;SDS011;14362;51.902;7.626;2022-07-23T23:23:41;3.42;;;3.10;;
26774;SDS011;14362;51.902;7.626;2022-07-23T23:27:43;3.45;;;3.15;;
26774;SDS011;14362;51.902;7.626;2022-07-23T23:31:46;3.38;;;3.05;;
26774;SDS011;14362;51.902;7.626;2022-07-23T23:35:47;3.85;;;3.47;;
26774;SDS011;14362;51.902;7.626;2022-07-23T23:39:49;3.92;;;3.20;;
26774;SDS011;14362;51.902;7.626;2022-07-23T23:43:50;4.30;;;3.42;;
26774;SDS011;14362;51.902;7.626;2022-07-23T23:47:53;5.15;;;3.60;;
26774;SDS011;14362;51.902;7.626;2022-07-23T23:51:55;4.25;;;3.67;;
26774;SDS011;14362;51.902;7.626;2022-07-23T23:55:56;3.90;;;3.60;;
26774;SDS011;14362;51.902;7.626;2022-07-23T23:59:57;4.90;;;3.53;;
